sensor_id;sensor_type;location;lat;lon;timestamp;P1;durP1;ratioP1;P2;durP2;ratioP2
80179;SDS011;69505;52.134;5.438;2023-10-13T00:01:14;13.38;;;8.40;;
80179;SDS011;69505;52.134;5.438;2023-10-13T00:03:41;12.88;;;8.05;;
80179;SDS011;69505;52.134;5.438;2023-10-13T00:06:10;12.85;;;7.88;;
80179;SDS011;69505;52.134;5.438;2023-10-13T00:08:37;13.98;;;8.27;;
80179;SDS011;69505;52.134;5.438;2023-10-13T00:11:05;13.05;;;7.20;;
80179;SDS011;69505;52.134;5.438;2023-10-13T00:13:32;12.25;;;8.63;;
80179;SDS011;69505;52.134;5.438;2023-10-13T00:16:31;14.15;;;8.77;;
80179;SDS011;69505;52.134;5.438;2023-10-13T00:19:03;15.82;;;8.93;;
80179;SDS011;69505;52.134;5.438;2023-10-13T00:21:32;14.00;;;8.40;;
80179;SDS011;69505;52.134;5.438;2023-10-13T00:24:04;15.35;;;9.02;;
80179;SDS011;69505;52.134;5.438;2023-10-13T00:26:38;13.63;;;8.70;;
80179;SDS011;69505;52.134;5.438;2023-10-13T00:29:10;18.38;;;9.43;;
80179;SDS011;69505;52.134;5.438;2023-10-13T00:31:40;12.55;;;8.30;;
80179;SDS011;69505;52.134;5.438;2023-10-13T00:34:10;13.35;;;8.43;;
80179;SDS011;69505;52.134;5.438;2023-10-13T00:36:52;16.63;;;8.05;;
80179;SDS011;69505;52.134;5.438;2023-10-13T00:39:41;13.73;;;8.13;;
80179;SDS011;69505;52.134;5.438;2023-10-13T00:42:12;12.52;;;7.95;;
80179;SDS011;69505;52.134;5.438;2023-10-13T00:44:50;13.45;;;7.88;;
80179;SDS011;69505;52.134;5.438;2023-10-13T00:47:21;12.70;;;6.65;;
80179;SDS011;69505;52.134;5.438;2023-10-13T00:50:04;11.93;;;6.13;;
80179;SDS011;69505;52.134;5.438;2023-10-13T00:52:37;15.50;;;7.75;;
80179;SDS011;69505;52.134;5.438;2023-10-13T00:55:08;11.40;;;6.55;;
80179;SDS011;69505;52.134;5.438;2023-10-13T00:57:39;14.65;;;7.85;;
80179;SDS011;69505;52.134;5.438;2023-10-13T01:00:07;12.20;;;7.95;;
80179;SDS011;69505;52.134;5.438;2023-10-13T01:02:54;15.20;;;7.65;;
80179;SDS011;69505;52.134;5.438;2023-10-13T01:05:23;11.90;;;8.13;;
80179;SDS011;69505;52.134;5.438;2023-10-13T01:07:51;11.88;;;7.35;;
80179;SDS011;69505;52.134;5.438;2023-10-13T01:10:21;13.52;;;8.23;;
80179;SDS011;69505;52.134;5.438;2023-10-13T01:12:54;10.43;;;7.70;;
80179;SDS011;69505;52.134;5.438;2023-10-13T01:15:21;13.80;;;8.43;;
80179;SDS011;69505;52.134;5.438;2023-10-13T01:17:51;14.10;;;8.30;;
80179;SDS011;69505;52.134;5.438;2023-10-13T01:20:25;11.02;;;7.75;;
80179;SDS011;69505;52.134;5.438;2023-10-13T01:22:52;16.35;;;9.13;;
80179;SDS011;69505;52.134;5.438;2023-10-13T01:25:23;15.15;;;9.05;;
80179;SDS011;69505;52.134;5.438;2023-10-13T01:27:54;14.18;;;9.25;;
80179;SDS011;69505;52.134;5.438;2023-10-13T01:30:21;13.38;;;9.50;;
80179;SDS011;69505;52.134;5.438;2023-10-13T01:32:55;17.05;;;10.35;;
80179;SDS011;69505;52.134;5.438;2023-10-13T01:35:27;13.07;;;9.80;;
80179;SDS011;69505;52.134;5.438;2023-10-13T01:38:02;14.20;;;9.82;;
80179;SDS011;69505;52.134;5.438;2023-10-13T01:40:29;16.55;;;8.70;;
80179;SDS011;69505;52.134;5.438;2023-10-13T01:43:00;13.27;;;8.90;;
80179;SDS011;69505;52.134;5.438;2023-10-13T01:45:27;13.15;;;9.10;;
80179;SDS011;69505;52.134;5.438;2023-10-13T01:47:57;18.65;;;10.18;;
80179;SDS011;69505;52.134;5.438;2023-10-13T01:50:24;12.30;;;8.07;;
80179;SDS011;69505;52.134;5.438;2023-10-13T01:52:59;12.85;;;9.77;;
80179;SDS011;69505;52.134;5.438;2023-10-13T01:55:39;12.85;;;9.10;;
80179;SDS011;69505;52.134;5.438;2023-10-13T01:58:10;16.48;;;9.05;;
80179;SDS011;69505;52.134;5.438;2023-10-13T02:00:46;14.38;;;8.70;;
80179;SDS011;69505;52.134;5.438;2023-10-13T02:03:14;12.50;;;9.07;;
80179;SDS011;69505;52.134;5.438;2023-10-13T02:05:45;14.45;;;8.20;;
80179;SDS011;69505;52.134;5.438;2023-10-13T02:08:17;16.60;;;8.85;;
80179;SDS011;69505;52.134;5.438;2023-10-13T02:10:51;10.98;;;7.93;;
80179;SDS011;69505;52.134;5.438;2023-10-13T02:13:19;15.32;;;8.00;;
80179;SDS011;69505;52.134;5.438;2023-10-13T02:15:49;12.75;;;7.97;;
80179;SDS011;69505;52.134;5.438;2023-10-13T02:18:23;11.95;;;8.07;;
80179;SDS011;69505;52.134;5.438;2023-10-13T02:20:54;15.05;;;6.93;;
80179;SDS011;69505;52.134;5.438;2023-10-13T02:23:30;10.77;;;7.80;;
80179;SDS011;69505;52.134;5.438;2023-10-13T02:26:00;14.40;;;8.43;;
80179;SDS011;69505;52.134;5.438;2023-10-13T02:28:29;9.38;;;6.72;;
80179;SDS011;69505;52.134;5.438;2023-10-13T02:31:03;12.63;;;7.72;;
80179;SDS011;69505;52.134;5.438;2023-10-13T02:33:31;10.77;;;7.68;;
80179;SDS011;69505;52.134;5.438;2023-10-13T02:36:04;12.88;;;8.35;;
80179;SDS011;69505;52.134;5.438;2023-10-13T02:38:31;12.02;;;7.63;;
80179;SDS011;69505;52.134;5.438;2023-10-13T02:41:01;10.23;;;7.07;;
80179;SDS011;69505;52.134;5.438;2023-10-13T02:43:35;10.75;;;6.88;;
80179;SDS011;69505;52.134;5.438;2023-10-13T02:46:02;13.73;;;7.05;;
80179;SDS011;69505;52.134;5.438;2023-10-13T02:48:30;11.80;;;7.32;;
80179;SDS011;69505;52.134;5.438;2023-10-13T02:51:07;9.98;;;7.03;;
80179;SDS011;69505;52.134;5.438;2023-10-13T02:53:42;10.68;;;6.65;;
80179;SDS011;69505;52.134;5.438;2023-10-13T02:56:13;13.00;;;6.57;;
80179;SDS011;69505;52.134;5.438;2023-10-13T02:58:40;17.05;;;6.55;;
80179;SDS011;69505;52.134;5.438;2023-10-13T03:01:12;11.02;;;6.53;;
80179;SDS011;69505;52.134;5.438;2023-10-13T03:03:48;10.10;;;6.47;;
80179;SDS011;69505;52.134;5.438;2023-10-13T03:06:18;13.82;;;6.63;;
80179;SDS011;69505;52.134;5.438;2023-10-13T03:09:06;10.63;;;6.57;;
80179;SDS011;69505;52.134;5.438;2023-10-13T03:12:00;8.60;;;6.63;;
80179;SDS011;69505;52.134;5.438;2023-10-13T03:14:26;11.68;;;6.70;;
80179;SDS011;69505;52.134;5.438;2023-10-13T03:17:00;9.10;;;6.60;;
80179;SDS011;69505;52.134;5.438;2023-10-13T03:19:46;10.45;;;6.38;;
80179;SDS011;69505;52.134;5.438;2023-10-13T03:22:17;12.57;;;6.90;;
80179;SDS011;69505;52.134;5.438;2023-10-13T03:24:44;15.25;;;6.00;;
80179;SDS011;69505;52.134;5.438;2023-10-13T03:27:15;14.25;;;7.03;;
80179;SDS011;69505;52.134;5.438;2023-10-13T03:29:44;10.25;;;6.97;;
80179;SDS011;69505;52.134;5.438;2023-10-13T03:32:20;12.05;;;6.03;;
80179;SDS011;69505;52.134;5.438;2023-10-13T03:34:47;13.80;;;6.53;;
80179;SDS011;69505;52.134;5.438;2023-10-13T03:37:26;10.80;;;6.22;;
80179;SDS011;69505;52.134;5.438;2023-10-13T03:42:54;9.77;;;5.57;;
80179;SDS011;69505;52.134;5.438;2023-10-13T03:45:52;8.18;;;5.28;;
80179;SDS011;69505;52.134;5.438;2023-10-13T03:50:54;10.63;;;5.00;;
80179;SDS011;69505;52.134;5.438;2023-10-13T03:53:31;11.13;;;4.78;;
80179;SDS011;69505;52.134;5.438;2023-10-13T03:56:19;10.30;;;5.05;;
80179;SDS011;69505;52.134;5.438;2023-10-13T03:58:58;7.25;;;4.60;;
80179;SDS011;69505;52.134;5.438;2023-10-13T04:01:33;8.15;;;5.05;;
80179;SDS011;69505;52.134;5.438;2023-10-13T04:04:32;7.70;;;5.05;;
80179;SDS011;69505;52.134;5.438;2023-10-13T04:07:13;8.82;;;4.85;;
80179;SDS011;69505;52.134;5.438;2023-10-13T04:10:00;9.45;;;4.95;;
80179;SDS011;69505;52.134;5.438;2023-10-13T04:13:05;9.48;;;4.57;;
80179;SDS011;69505;52.134;5.438;2023-10-13T04:15:50;7.38;;;3.83;;
80179;SDS011;69505;52.134;5.438;2023-10-13T04:18:35;8.38;;;5.03;;
80179;SDS011;69505;52.134;5.438;2023-10-13T04:21:23;7.50;;;4.93;;
80179;SDS011;69505;52.134;5.438;2023-10-13T04:24:23;7.47;;;3.58;;
80179;SDS011;69505;52.134;5.438;2023-10-13T04:27:04;7.97;;;5.65;;
80179;SDS011;69505;52.134;5.438;2023-10-13T04:30:06;6.40;;;4.63;;
80179;SDS011;69505;52.134;5.438;2023-10-13T04:32:33;7.38;;;4.60;;
80179;SDS011;69505;52.134;5.438;2023-10-13T04:35:04;14.25;;;4.50;;
80179;SDS011;69505;52.134;5.438;2023-10-13T04:37:36;7.65;;;4.70;;
80179;SDS011;69505;52.134;5.438;2023-10-13T04:40:16;6.78;;;3.97;;
80179;SDS011;69505;52.134;5.438;2023-10-13T04:42:46;10.43;;;4.88;;
80179;SDS011;69505;52.134;5.438;2023-10-13T04:45:17;7.95;;;4.90;;
80179;SDS011;69505;52.134;5.438;2023-10-13T04:47:59;8.65;;;3.78;;
80179;SDS011;69505;52.134;5.438;2023-10-13T04:50:47;6.30;;;4.35;;
80179;SDS011;69505;52.134;5.438;2023-10-13T04:53:17;10.75;;;4.50;;
80179;SDS011;69505;52.134;5.438;2023-10-13T04:55:56;5.30;;;3.90;;
80179;SDS011;69505;52.134;5.438;2023-10-13T04:58:29;5.88;;;4.40;;
80179;SDS011;69505;52.134;5.438;2023-10-13T05:01:00;7.20;;;3.70;;
80179;SDS011;69505;52.134;5.438;2023-10-13T05:03:45;4.60;;;3.70;;
80179;SDS011;69505;52.134;5.438;2023-10-13T05:06:31;7.70;;;3.97;;
80179;SDS011;69505;52.134;5.438;2023-10-13T05:09:11;6.35;;;4.15;;
80179;SDS011;69505;52.134;5.438;2023-10-13T05:14:43;5.53;;;3.42;;
80179;SDS011;69505;52.134;5.438;2023-10-13T05:17:29;6.43;;;3.47;;
80179;SDS011;69505;52.134;5.438;2023-10-13T05:20:14;6.50;;;3.55;;
80179;SDS011;69505;52.134;5.438;2023-10-13T05:22:59;5.30;;;3.33;;
80179;SDS011;69505;52.134;5.438;2023-10-13T05:25:44;6.25;;;3.60;;
80179;SDS011;69505;52.134;5.438;2023-10-13T05:28:29;7.53;;;4.47;;
80179;SDS011;69505;52.134;5.438;2023-10-13T05:31:15;7.13;;;4.43;;
80179;SDS011;69505;52.134;5.438;2023-10-13T05:34:00;8.57;;;5.00;;
80179;SDS011;69505;52.134;5.438;2023-10-13T05:36:45;8.93;;;5.28;;
80179;SDS011;69505;52.134;5.438;2023-10-13T05:39:30;7.68;;;4.60;;
80179;SDS011;69505;52.134;5.438;2023-10-13T05:42:15;9.38;;;4.72;;
80179;SDS011;69505;52.134;5.438;2023-10-13T05:45:00;14.60;;;5.00;;
80179;SDS011;69505;52.134;5.438;2023-10-13T05:47:42;9.98;;;4.93;;
80179;SDS011;69505;52.134;5.438;2023-10-13T05:50:09;10.98;;;3.92;;
80179;SDS011;69505;52.134;5.438;2023-10-13T05:52:46;9.77;;;4.00;;
80179;SDS011;69505;52.134;5.438;2023-10-13T05:55:26;8.50;;;4.07;;
80179;SDS011;69505;52.134;5.438;2023-10-13T05:58:13;6.68;;;4.28;;
80179;SDS011;69505;52.134;5.438;2023-10-13T06:00:58;9.35;;;3.83;;
80179;SDS011;69505;52.134;5.438;2023-10-13T06:03:44;6.63;;;3.47;;
80179;SDS011;69505;52.134;5.438;2023-10-13T06:06:29;8.43;;;4.30;;
80179;SDS011;69505;52.134;5.438;2023-10-13T06:09:14;9.20;;;3.80;;
80179;SDS011;69505;52.134;5.438;2023-10-13T06:11:59;11.10;;;4.05;;
80179;SDS011;69505;52.134;5.438;2023-10-13T06:14:45;9.80;;;4.22;;
80179;SDS011;69505;52.134;5.438;2023-10-13T06:17:30;9.48;;;3.88;;
80179;SDS011;69505;52.134;5.438;2023-10-13T06:20:16;11.68;;;3.92;;
80179;SDS011;69505;52.134;5.438;2023-10-13T06:23:01;9.27;;;4.43;;
80179;SDS011;69505;52.134;5.438;2023-10-13T06:25:52;9.00;;;4.05;;
80179;SDS011;69505;52.134;5.438;2023-10-13T06:28:38;8.35;;;3.20;;
80179;SDS011;69505;52.134;5.438;2023-10-13T06:31:09;12.30;;;3.40;;
80179;SDS011;69505;52.134;5.438;2023-10-13T06:33:48;8.13;;;4.03;;
80179;SDS011;69505;52.134;5.438;2023-10-13T06:36:15;10.40;;;3.25;;
80179;SDS011;69505;52.134;5.438;2023-10-13T06:38:44;8.05;;;4.07;;
80179;SDS011;69505;52.134;5.438;2023-10-13T06:41:19;9.32;;;4.50;;
80179;SDS011;69505;52.134;5.438;2023-10-13T06:43:57;10.63;;;4.65;;
80179;SDS011;69505;52.134;5.438;2023-10-13T06:46:27;8.30;;;4.03;;
80179;SDS011;69505;52.134;5.438;2023-10-13T06:48:55;8.02;;;4.22;;
80179;SDS011;69505;52.134;5.438;2023-10-13T06:51:26;5.60;;;4.10;;
80179;SDS011;69505;52.134;5.438;2023-10-13T06:53:57;8.07;;;4.55;;
80179;SDS011;69505;52.134;5.438;2023-10-13T06:56:24;8.35;;;4.50;;
80179;SDS011;69505;52.134;5.438;2023-10-13T07:02:25;9.23;;;5.32;;
80179;SDS011;69505;52.134;5.438;2023-10-13T07:07:45;12.15;;;5.18;;
80179;SDS011;69505;52.134;5.438;2023-10-13T07:12:41;7.50;;;5.32;;
80179;SDS011;69505;52.134;5.438;2023-10-13T07:15:11;7.43;;;4.95;;
80179;SDS011;69505;52.134;5.438;2023-10-13T07:17:46;11.40;;;5.47;;
80179;SDS011;69505;52.134;5.438;2023-10-13T07:20:14;8.65;;;5.13;;
80179;SDS011;69505;52.134;5.438;2023-10-13T07:22:42;6.82;;;5.75;;
80179;SDS011;69505;52.134;5.438;2023-10-13T07:25:22;8.35;;;5.20;;
80179;SDS011;69505;52.134;5.438;2023-10-13T07:27:53;10.15;;;5.50;;
80179;SDS011;69505;52.134;5.438;2023-10-13T07:30:20;7.50;;;5.32;;
80179;SDS011;69505;52.134;5.438;2023-10-13T07:32:53;8.52;;;5.55;;
80179;SDS011;69505;52.134;5.438;2023-10-13T07:35:27;11.52;;;5.13;;
80179;SDS011;69505;52.134;5.438;2023-10-13T07:37:58;9.38;;;3.95;;
80179;SDS011;69505;52.134;5.438;2023-10-13T07:40:27;9.88;;;5.28;;
80179;SDS011;69505;52.134;5.438;2023-10-13T07:42:54;9.50;;;5.30;;
80179;SDS011;69505;52.134;5.438;2023-10-13T07:45:27;9.45;;;4.90;;
80179;SDS011;69505;52.134;5.438;2023-10-13T07:48:06;12.18;;;5.20;;
80179;SDS011;69505;52.134;5.438;2023-10-13T07:50:47;9.32;;;4.50;;
80179;SDS011;69505;52.134;5.438;2023-10-13T07:53:25;10.77;;;4.65;;
80179;SDS011;69505;52.134;5.438;2023-10-13T07:55:54;8.48;;;4.28;;
80179;SDS011;69505;52.134;5.438;2023-10-13T07:58:23;11.63;;;4.50;;
80179;SDS011;69505;52.134;5.438;2023-10-13T08:00:52;11.82;;;5.10;;
80179;SDS011;69505;52.134;5.438;2023-10-13T08:03:26;11.65;;;4.43;;
80179;SDS011;69505;52.134;5.438;2023-10-13T08:06:01;9.73;;;4.25;;
80179;SDS011;69505;52.134;5.438;2023-10-13T08:08:31;7.22;;;4.03;;
80179;SDS011;69505;52.134;5.438;2023-10-13T08:13:54;9.25;;;4.90;;
80179;SDS011;69505;52.134;5.438;2023-10-13T08:16:57;9.68;;;4.63;;
80179;SDS011;69505;52.134;5.438;2023-10-13T08:26:43;13.27;;;4.45;;
80179;SDS011;69505;52.134;5.438;2023-10-13T08:29:34;8.43;;;4.20;;
80179;SDS011;69505;52.134;5.438;2023-10-13T08:32:15;12.40;;;4.20;;
80179;SDS011;69505;52.134;5.438;2023-10-13T08:35:00;9.77;;;4.25;;
80179;SDS011;69505;52.134;5.438;2023-10-13T08:37:51;9.13;;;4.43;;
80179;SDS011;69505;52.134;5.438;2023-10-13T08:40:19;9.13;;;4.03;;
80179;SDS011;69505;52.134;5.438;2023-10-13T08:43:11;8.75;;;4.47;;
80179;SDS011;69505;52.134;5.438;2023-10-13T08:57:25;11.57;;;3.75;;
80179;SDS011;69505;52.134;5.438;2023-10-13T09:00:01;9.20;;;4.38;;
80179;SDS011;69505;52.134;5.438;2023-10-13T09:07:12;14.68;;;4.40;;
80179;SDS011;69505;52.134;5.438;2023-10-13T09:15:05;14.52;;;4.07;;
80179;SDS011;69505;52.134;5.438;2023-10-13T09:17:43;11.75;;;4.40;;
80179;SDS011;69505;52.134;5.438;2023-10-13T09:20:27;13.27;;;3.90;;
80179;SDS011;69505;52.134;5.438;2023-10-13T09:23:07;10.55;;;4.00;;
80179;SDS011;69505;52.134;5.438;2023-10-13T09:26:11;12.60;;;4.28;;
80179;SDS011;69505;52.134;5.438;2023-10-13T09:28:38;10.63;;;4.13;;
80179;SDS011;69505;52.134;5.438;2023-10-13T09:31:06;11.52;;;4.20;;
80179;SDS011;69505;52.134;5.438;2023-10-13T09:33:36;9.57;;;3.88;;
80179;SDS011;69505;52.134;5.438;2023-10-13T09:36:06;13.05;;;3.90;;
80179;SDS011;69505;52.134;5.438;2023-10-13T09:42:14;11.35;;;4.38;;
80179;SDS011;69505;52.134;5.438;2023-10-13T09:44:45;12.52;;;4.18;;
80179;SDS011;69505;52.134;5.438;2023-10-13T09:47:25;11.20;;;3.80;;
80179;SDS011;69505;52.134;5.438;2023-10-13T09:49:59;10.80;;;3.83;;
80179;SDS011;69505;52.134;5.438;2023-10-13T09:52:32;9.50;;;3.83;;
80179;SDS011;69505;52.134;5.438;2023-10-13T09:57:47;11.77;;;4.25;;
80179;SDS011;69505;52.134;5.438;2023-10-13T10:00:25;10.40;;;4.25;;
80179;SDS011;69505;52.134;5.438;2023-10-13T10:03:01;12.85;;;4.47;;
80179;SDS011;69505;52.134;5.438;2023-10-13T10:06:02;10.13;;;4.10;;
80179;SDS011;69505;52.134;5.438;2023-10-13T10:08:52;13.63;;;3.95;;
80179;SDS011;69505;52.134;5.438;2023-10-13T10:18:28;14.32;;;4.72;;
80179;SDS011;69505;52.134;5.438;2023-10-13T10:21:05;11.45;;;4.10;;
80179;SDS011;69505;52.134;5.438;2023-10-13T10:23:34;11.10;;;4.10;;
80179;SDS011;69505;52.134;5.438;2023-10-13T10:26:10;9.82;;;4.25;;
80179;SDS011;69505;52.134;5.438;2023-10-13T10:28:46;8.93;;;4.22;;
80179;SDS011;69505;52.134;5.438;2023-10-13T10:31:14;13.05;;;4.35;;
80179;SDS011;69505;52.134;5.438;2023-10-13T10:33:43;14.18;;;4.20;;
80179;SDS011;69505;52.134;5.438;2023-10-13T10:36:11;10.85;;;4.38;;
80179;SDS011;69505;52.134;5.438;2023-10-13T10:38:53;12.65;;;4.10;;
80179;SDS011;69505;52.134;5.438;2023-10-13T10:41:26;10.50;;;4.90;;
80179;SDS011;69505;52.134;5.438;2023-10-13T10:44:11;11.75;;;3.88;;
80179;SDS011;69505;52.134;5.438;2023-10-13T10:46:43;18.20;;;4.25;;
80179;SDS011;69505;52.134;5.438;2023-10-13T10:49:25;14.32;;;4.60;;
80179;SDS011;69505;52.134;5.438;2023-10-13T10:52:00;10.20;;;4.45;;
80179;SDS011;69505;52.134;5.438;2023-10-13T10:54:34;7.10;;;4.25;;
80179;SDS011;69505;52.134;5.438;2023-10-13T10:57:01;9.20;;;3.83;;
80179;SDS011;69505;52.134;5.438;2023-10-13T10:59:37;13.30;;;4.50;;
80179;SDS011;69505;52.134;5.438;2023-10-13T11:02:06;10.07;;;4.45;;
80179;SDS011;69505;52.134;5.438;2023-10-13T11:10:10;14.57;;;4.30;;
80179;SDS011;69505;52.134;5.438;2023-10-13T11:13:04;13.73;;;4.57;;
80179;SDS011;69505;52.134;5.438;2023-10-13T11:15:50;10.43;;;4.15;;
80179;SDS011;69505;52.134;5.438;2023-10-13T11:18:17;8.63;;;4.28;;
80179;SDS011;69505;52.134;5.438;2023-10-13T11:20:50;12.48;;;4.50;;
80179;SDS011;69505;52.134;5.438;2023-10-13T11:23:22;9.38;;;4.32;;
80179;SDS011;69505;52.134;5.438;2023-10-13T11:25:58;12.07;;;4.30;;
80179;SDS011;69505;52.134;5.438;2023-10-13T11:28:26;14.82;;;3.83;;
80179;SDS011;69505;52.134;5.438;2023-10-13T11:30:58;14.68;;;4.70;;
80179;SDS011;69505;52.134;5.438;2023-10-13T11:33:26;10.07;;;4.35;;
80179;SDS011;69505;52.134;5.438;2023-10-13T11:35:55;12.05;;;4.75;;
80179;SDS011;69505;52.134;5.438;2023-10-13T11:38:33;11.65;;;4.63;;
80179;SDS011;69505;52.134;5.438;2023-10-13T11:41:09;11.23;;;4.35;;
80179;SDS011;69505;52.134;5.438;2023-10-13T11:43:43;13.48;;;4.30;;
80179;SDS011;69505;52.134;5.438;2023-10-13T11:46:11;12.68;;;4.47;;
80179;SDS011;69505;52.134;5.438;2023-10-13T11:48:42;11.57;;;5.40;;
80179;SDS011;69505;52.134;5.438;2023-10-13T11:51:11;10.95;;;4.25;;
80179;SDS011;69505;52.134;5.438;2023-10-13T11:53:50;9.38;;;4.70;;
80179;SDS011;69505;52.134;5.438;2023-10-13T11:56:22;11.18;;;4.20;;
80179;SDS011;69505;52.134;5.438;2023-10-13T11:58:49;12.43;;;4.70;;
80179;SDS011;69505;52.134;5.438;2023-10-13T12:01:17;11.77;;;5.32;;
80179;SDS011;69505;52.134;5.438;2023-10-13T12:03:45;13.38;;;4.80;;
80179;SDS011;69505;52.134;5.438;2023-10-13T12:06:31;13.68;;;4.28;;
80179;SDS011;69505;52.134;5.438;2023-10-13T12:09:04;12.95;;;5.35;;
80179;SDS011;69505;52.134;5.438;2023-10-13T12:11:57;12.73;;;5.05;;
80179;SDS011;69505;52.134;5.438;2023-10-13T12:14:26;12.20;;;5.15;;
80179;SDS011;69505;52.134;5.438;2023-10-13T12:16:58;13.77;;;4.00;;
80179;SDS011;69505;52.134;5.438;2023-10-13T12:19:31;9.63;;;3.58;;
80179;SDS011;69505;52.134;5.438;2023-10-13T12:21:58;17.35;;;4.50;;
80179;SDS011;69505;52.134;5.438;2023-10-13T12:24:31;14.60;;;4.57;;
80179;SDS011;69505;52.134;5.438;2023-10-13T12:27:04;17.75;;;4.65;;
80179;SDS011;69505;52.134;5.438;2023-10-13T12:30:03;14.35;;;4.57;;
80179;SDS011;69505;52.134;5.438;2023-10-13T12:32:34;10.02;;;4.65;;
80179;SDS011;69505;52.134;5.438;2023-10-13T12:35:01;14.10;;;3.70;;
80179;SDS011;69505;52.134;5.438;2023-10-13T12:37:31;9.70;;;4.68;;
80179;SDS011;69505;52.134;5.438;2023-10-13T12:40:08;18.73;;;4.38;;
80179;SDS011;69505;52.134;5.438;2023-10-13T12:42:53;17.13;;;4.90;;
80179;SDS011;69505;52.134;5.438;2023-10-13T12:45:39;9.35;;;4.22;;
80179;SDS011;69505;52.134;5.438;2023-10-13T12:48:25;10.52;;;4.65;;
80179;SDS011;69505;52.134;5.438;2023-10-13T12:51:11;13.02;;;4.80;;
80179;SDS011;69505;52.134;5.438;2023-10-13T12:53:50;16.73;;;4.72;;
80179;SDS011;69505;52.134;5.438;2023-10-13T12:56:18;12.90;;;4.75;;
80179;SDS011;69505;52.134;5.438;2023-10-13T12:58:55;14.98;;;4.38;;
80179;SDS011;69505;52.134;5.438;2023-10-13T13:01:22;16.17;;;4.40;;
80179;SDS011;69505;52.134;5.438;2023-10-13T13:03:59;11.90;;;4.30;;
80179;SDS011;69505;52.134;5.438;2023-10-13T13:06:30;16.02;;;4.78;;
80179;SDS011;69505;52.134;5.438;2023-10-13T13:08:57;11.32;;;4.10;;
80179;SDS011;69505;52.134;5.438;2023-10-13T13:11:25;11.45;;;4.97;;
80179;SDS011;69505;52.134;5.438;2023-10-13T13:13:59;15.45;;;5.18;;
80179;SDS011;69505;52.134;5.438;2023-10-13T13:16:26;12.27;;;4.88;;
80179;SDS011;69505;52.134;5.438;2023-10-13T13:19:00;12.38;;;4.90;;
80179;SDS011;69505;52.134;5.438;2023-10-13T13:35:56;15.38;;;4.57;;
80179;SDS011;69505;52.134;5.438;2023-10-13T13:38:26;13.55;;;5.07;;
80179;SDS011;69505;52.134;5.438;2023-10-13T13:41:00;13.45;;;5.38;;
80179;SDS011;69505;52.134;5.438;2023-10-13T13:43:29;11.43;;;5.47;;
80179;SDS011;69505;52.134;5.438;2023-10-13T13:46:05;10.48;;;5.00;;
80179;SDS011;69505;52.134;5.438;2023-10-13T13:48:36;14.07;;;4.85;;
80179;SDS011;69505;52.134;5.438;2023-10-13T13:51:06;12.63;;;4.70;;
80179;SDS011;69505;52.134;5.438;2023-10-13T13:53:48;13.57;;;5.30;;
80179;SDS011;69505;52.134;5.438;2023-10-13T13:56:15;13.32;;;5.00;;
80179;SDS011;69505;52.134;5.438;2023-10-13T13:58:46;15.82;;;5.40;;
80179;SDS011;69505;52.134;5.438;2023-10-13T14:01:16;13.40;;;5.50;;
80179;SDS011;69505;52.134;5.438;2023-10-13T14:03:52;13.43;;;5.30;;
80179;SDS011;69505;52.134;5.438;2023-10-13T14:06:23;15.75;;;5.28;;
80179;SDS011;69505;52.134;5.438;2023-10-13T14:09:00;12.95;;;5.28;;
80179;SDS011;69505;52.134;5.438;2023-10-13T14:11:30;17.67;;;5.55;;
80179;SDS011;69505;52.134;5.438;2023-10-13T14:14:08;14.05;;;5.30;;
80179;SDS011;69505;52.134;5.438;2023-10-13T14:16:42;13.40;;;5.43;;
80179;SDS011;69505;52.134;5.438;2023-10-13T14:19:14;15.43;;;5.45;;
80179;SDS011;69505;52.134;5.438;2023-10-13T14:21:56;11.02;;;5.53;;
80179;SDS011;69505;52.134;5.438;2023-10-13T14:24:24;14.95;;;5.25;;
80179;SDS011;69505;52.134;5.438;2023-10-13T14:27:02;12.05;;;5.50;;
80179;SDS011;69505;52.134;5.438;2023-10-13T14:29:39;15.73;;;5.32;;
80179;SDS011;69505;52.134;5.438;2023-10-13T14:32:12;11.40;;;4.60;;
80179;SDS011;69505;52.134;5.438;2023-10-13T14:34:47;12.23;;;5.43;;
80179;SDS011;69505;52.134;5.438;2023-10-13T14:37:20;14.82;;;5.53;;
80179;SDS011;69505;52.134;5.438;2023-10-13T14:39:53;14.70;;;5.45;;
80179;SDS011;69505;52.134;5.438;2023-10-13T14:42:24;11.63;;;4.88;;
80179;SDS011;69505;52.134;5.438;2023-10-13T14:44:51;13.30;;;5.25;;
80179;SDS011;69505;52.134;5.438;2023-10-13T14:47:24;9.18;;;5.05;;
80179;SDS011;69505;52.134;5.438;2023-10-13T14:49:52;11.27;;;4.88;;
80179;SDS011;69505;52.134;5.438;2023-10-13T14:52:26;8.43;;;4.43;;
80179;SDS011;69505;52.134;5.438;2023-10-13T14:54:53;12.70;;;5.20;;
80179;SDS011;69505;52.134;5.438;2023-10-13T14:57:22;15.80;;;5.75;;
80179;SDS011;69505;52.134;5.438;2023-10-13T14:59:55;10.88;;;5.05;;
80179;SDS011;69505;52.134;5.438;2023-10-13T15:02:24;8.98;;;4.75;;
80179;SDS011;69505;52.134;5.438;2023-10-13T15:04:51;10.02;;;4.93;;
80179;SDS011;69505;52.134;5.438;2023-10-13T15:09:48;11.70;;;4.88;;
80179;SDS011;69505;52.134;5.438;2023-10-13T15:12:15;10.75;;;5.25;;
80179;SDS011;69505;52.134;5.438;2023-10-13T15:14:48;10.95;;;4.43;;
80179;SDS011;69505;52.134;5.438;2023-10-13T15:17:15;12.48;;;6.00;;
80179;SDS011;69505;52.134;5.438;2023-10-13T15:19:43;12.13;;;4.95;;
80179;SDS011;69505;52.134;5.438;2023-10-13T15:22:09;14.10;;;4.93;;
80179;SDS011;69505;52.134;5.438;2023-10-13T15:24:43;13.13;;;4.75;;
80179;SDS011;69505;52.134;5.438;2023-10-13T15:27:11;12.80;;;4.82;;
80179;SDS011;69505;52.134;5.438;2023-10-13T15:29:38;12.77;;;4.82;;
80179;SDS011;69505;52.134;5.438;2023-10-13T15:32:05;13.45;;;5.25;;
80179;SDS011;69505;52.134;5.438;2023-10-13T15:34:53;10.95;;;4.05;;
80179;SDS011;69505;52.134;5.438;2023-10-13T15:37:20;13.77;;;4.78;;
80179;SDS011;69505;52.134;5.438;2023-10-13T15:39:52;12.05;;;5.30;;
80179;SDS011;69505;52.134;5.438;2023-10-13T15:42:19;12.23;;;5.13;;
80179;SDS011;69505;52.134;5.438;2023-10-13T15:44:47;13.48;;;5.63;;
80179;SDS011;69505;52.134;5.438;2023-10-13T15:47:16;14.00;;;5.30;;
80179;SDS011;69505;52.134;5.438;2023-10-13T15:49:46;12.30;;;4.93;;
80179;SDS011;69505;52.134;5.438;2023-10-13T15:52:15;12.93;;;5.82;;
80179;SDS011;69505;52.134;5.438;2023-10-13T15:54:42;11.32;;;6.20;;
80179;SDS011;69505;52.134;5.438;2023-10-13T15:57:09;9.68;;;5.18;;
80179;SDS011;69505;52.134;5.438;2023-10-13T15:59:42;14.32;;;4.93;;
80179;SDS011;69505;52.134;5.438;2023-10-13T16:02:12;9.70;;;5.43;;
80179;SDS011;69505;52.134;5.438;2023-10-13T16:04:40;15.00;;;5.65;;
80179;SDS011;69505;52.134;5.438;2023-10-13T16:07:07;9.02;;;4.40;;
80179;SDS011;69505;52.134;5.438;2023-10-13T16:09:35;16.77;;;6.03;;
80179;SDS011;69505;52.134;5.438;2023-10-13T16:12:02;10.30;;;5.07;;
80179;SDS011;69505;52.134;5.438;2023-10-13T16:14:29;11.10;;;5.32;;
80179;SDS011;69505;52.134;5.438;2023-10-13T16:17:01;14.20;;;5.53;;
80179;SDS011;69505;52.134;5.438;2023-10-13T16:19:30;14.48;;;5.75;;
80179;SDS011;69505;52.134;5.438;2023-10-13T16:21:57;13.43;;;5.20;;
80179;SDS011;69505;52.134;5.438;2023-10-13T16:24:24;11.48;;;5.97;;
80179;SDS011;69505;52.134;5.438;2023-10-13T16:26:51;10.43;;;4.72;;
80179;SDS011;69505;52.134;5.438;2023-10-13T16:29:19;13.32;;;5.05;;
80179;SDS011;69505;52.134;5.438;2023-10-13T16:31:46;11.43;;;4.80;;
80179;SDS011;69505;52.134;5.438;2023-10-13T16:34:17;11.07;;;5.38;;
80179;SDS011;69505;52.134;5.438;2023-10-13T16:36:45;13.85;;;5.40;;
80179;SDS011;69505;52.134;5.438;2023-10-13T16:39:13;10.55;;;5.20;;
80179;SDS011;69505;52.134;5.438;2023-10-13T16:41:44;12.07;;;5.82;;
80179;SDS011;69505;52.134;5.438;2023-10-13T16:44:12;11.98;;;5.05;;
80179;SDS011;69505;52.134;5.438;2023-10-13T16:46:39;11.15;;;5.07;;